Time,TemperatureF,DewpointF,PressureIn,WindDirection,WindDirectionDegrees,WindSpeedMPH,WindSpeedGustMPH,Humidity,HourlyPrecipIn,Conditions,Clouds,dailyrainin,SoftwareType,DateUTC
2013-04-09 00:26:00,53.6,47.0,29.97,NNW,346,5.0,-999.0,78,-99.99,,,0.00,weatherlink.com 1.10,2013-04-09 04:26:00,
2013-04-09 00:41:00,54.1,47.0,29.95,NE,49,4.0,-999.0,77,-99.99,,,0.00,weatherlink.com 1.10,2013-04-09 04:41:00,
2013-04-09 01:11:00,53.5,47.0,29.96,ESE,108,0.0,-999.0,79,-99.99,,,0.00,weatherlink.com 1.10,2013-04-09 05:11:00,
2013-04-09 01:26:00,53.8,48.0,29.94,East,93,5.0,-999.0,80,-99.99,,,0.00,weatherlink.com 1.10,2013-04-09 05:26:00,
2013-04-09 01:56:00,53.3,48.0,29.96,WSW,255,2.0,-999.0,81,-99.99,,,0.00,weatherlink.com 1.10,2013-04-09 05:56:00,
2013-04-09 02:12:00,53.2,48.0,29.97,WSW,237,0.0,-999.0,81,-99.99,,,0.00,weatherlink.com 1.10,2013-04-09 06:12:00,
2013-04-09 02:26:00,53.2,48.0,29.96,NE,35,1.0,-999.0,81,-99.99,,,0.00,weatherlink.com 1.10,2013-04-09 06:26:00,
2013-04-09 02:41:00,52.6,48.0,29.96,NW,309,0.0,-999.0,83,-99.99,,,0.00,weatherlink.com 1.10,2013-04-09 06:41:00,
2013-04-09 02:56:00,53.2,48.0,29.96,North,351,0.0,-999.0,83,-99.99,,,0.00,weatherlink.com 1.10,2013-04-09 06:56:00,
2013-04-09 03:11:00,53.2,48.0,29.95,North,5,2.0,-999.0,83,-99.99,,,0.00,weatherlink.com 1.10,2013-04-09 07:11:00,
2013-04-09 03:26:00,53.2,48.0,29.95,NNW,336,2.0,-999.0,83,-99.99,,,0.00,weatherlink.com 1.10,2013-04-09 07:26:00,
2013-04-09 03:41:00,53.1,48.0,29.95,SW,221,5.0,-999.0,83,-99.99,,,0.00,weatherlink.com 1.10,2013-04-09 07:41:00,
2013-04-09 03:56:00,52.8,48.0,29.95,NW,314,4.0,-999.0,84,-99.99,,,0.00,weatherlink.com 1.10,2013-04-09 07:56:00,
2013-04-09 04:12:00,52.9,48.0,29.95,WNW,286,7.0,-999.0,82,-99.99,,,0.00,weatherlink.com 1.10,2013-04-09 08:12:00,
2013-04-09 04:27:00,53.2,48.0,29.97,WSW,258,4.0,-999.0,82,-99.99,,,0.00,weatherlink.com 1.10,2013-04-09 08:27:00,
2013-04-09 04:42:00,53.3,48.0,29.97,WNW,296,4.0,-999.0,82,-99.99,,,0.00,weatherlink.com 1.10,2013-04-09 08:42:00,
2013-04-09 04:57:00,53.3,48.0,29.96,NW,313,2.0,-999.0,81,-99.99,,,0.00,weatherlink.com 1.10,2013-04-09 08:57:00,
2013-04-09 05:12:00,53.2,48.0,29.97,WNW,297,2.0,-999.0,82,-99.99,,,0.00,weatherlink.com 1.10,2013-04-09 09:12:00,
2013-04-09 05:27:00,52.6,48.0,29.97,West,259,1.0,-999.0,83,-99.99,,,0.00,weatherlink.com 1.10,2013-04-09 09:27:00,
2013-04-09 05:42:00,52.5,47.0,29.98,WNW,290,0.0,-999.0,82,-99.99,,,0.00,weatherlink.com 1.10,2013-04-09 09:42:00,
2013-04-09 05:57:00,52.2,47.0,29.98,West,277,0.0,-999.0,83,-99.99,,,0.00,weatherlink.com 1.10,2013-04-09 09:57:00,
2013-04-09 06:12:00,52.5,48.0,30.00,West,265,6.0,-999.0,83,-99.99,,,0.00,weatherlink.com 1.10,2013-04-09 10:12:00,
2013-04-09 06:27:00,53.1,47.0,30.00,North,5,0.0,-999.0,81,-99.99,,,0.00,weatherlink.com 1.10,2013-04-09 10:27:00,
2013-04-09 06:42:00,52.6,48.0,30.00,WNW,286,2.0,-999.0,83,-99.99,,,0.00,weatherlink.com 1.10,2013-04-09 10:42:00,
2013-04-09 06:57:00,53.1,47.0,30.01,WSW,248,5.0,-999.0,81,-99.99,,,0.00,weatherlink.com 1.10,2013-04-09 10:57:00,
2013-04-09 07:12:00,52.8,47.0,30.02,WNW,296,5.0,-999.0,82,-99.99,,,0.00,weatherlink.com 1.10,2013-04-09 11:12:00,
2013-04-09 07:27:00,53.1,48.0,30.03,WNW,286,0.0,-999.0,82,-99.99,,,0.00,weatherlink.com 1.10,2013-04-09 11:27:00,
2013-04-09 07:42:00,53.8,48.0,30.03,WSW,244,0.0,-999.0,80,-99.99,,,0.00,weatherlink.com 1.10,2013-04-09 11:42:00,
2013-04-09 07:57:00,54.4,48.0,30.04,WNW,294,2.0,-999.0,80,-99.99,,,0.00,weatherlink.com 1.10,2013-04-09 11:57:00,
2013-04-09 08:12:00,54.4,48.0,30.04,SSW,205,0.0,-999.0,79,-99.99,,,0.00,weatherlink.com 1.10,2013-04-09 12:12:00,
2013-04-09 08:27:00,55.4,49.0,30.06,SW,233,0.0,-999.0,79,-99.99,,,0.00,weatherlink.com 1.10,2013-04-09 12:27:00,
2013-04-09 08:42:00,55.7,49.0,30.06,SW,221,0.0,-999.0,77,-99.99,,,0.00,weatherlink.com 1.10,2013-04-09 12:42:00,
2013-04-09 08:57:00,56.5,49.0,30.06,WSW,237,0.0,-999.0,77,-99.99,,,0.00,weatherlink.com 1.10,2013-04-09 12:57:00,
2013-04-09 09:12:00,58.0,49.0,30.06,WSW,238,3.0,-999.0,73,-99.99,,,0.00,weatherlink.com 1.10,2013-04-09 13:12:00,
2013-04-09 09:27:00,57.2,49.0,30.06,SSW,198,4.0,-999.0,75,-99.99,,,0.00,weatherlink.com 1.10,2013-04-09 13:27:00,
2013-04-09 09:42:00,58.7,49.0,30.05,SW,219,4.0,-999.0,71,-99.99,,,0.00,weatherlink.com 1.10,2013-04-09 13:42:00,
2013-04-09 09:57:00,58.9,50.0,30.04,SSW,211,1.0,-999.0,73,-99.99,,,0.00,weatherlink.com 1.10,2013-04-09 13:57:00,
2013-04-09 10:12:00,59.3,50.0,30.05,SSW,211,4.0,-999.0,71,-99.99,,,0.00,weatherlink.com 1.10,2013-04-09 14:12:00,
2013-04-09 10:27:00,62.3,50.0,30.06,SE,124,0.0,-999.0,65,-99.99,,,0.00,weatherlink.com 1.10,2013-04-09 14:27:00,
2013-04-09 10:57:00,63.1,50.0,30.05,WSW,244,3.0,-999.0,62,-99.99,,,0.00,weatherlink.com 1.10,2013-04-09 14:57:00,
2013-04-09 11:12:00,64.3,51.0,30.05,South,170,2.0,-999.0,63,-99.99,,,0.00,weatherlink.com 1.10,2013-04-09 15:12:00,
2013-04-09 11:27:00,64.3,49.0,30.04,SSW,209,4.0,-999.0,59,-99.99,,,0.00,weatherlink.com 1.10,2013-04-09 15:27:00,
2013-04-09 11:42:00,65.5,49.0,30.06,WSW,248,2.0,-999.0,55,-99.99,,,0.00,weatherlink.com 1.10,2013-04-09 15:42:00,
2013-04-09 11:57:00,66.6,51.0,30.05,SSW,211,5.0,-999.0,57,-99.99,,,0.00,weatherlink.com 1.10,2013-04-09 15:57:00,
2013-04-09 12:12:00,65.3,49.0,30.05,South,170,2.0,-999.0,56,-99.99,,,0.00,weatherlink.com 1.10,2013-04-09 16:12:00,
2013-04-09 12:27:00,65.8,49.0,30.05,South,173,0.0,-999.0,55,-99.99,,,0.00,weatherlink.com 1.10,2013-04-09 16:27:00,
2013-04-09 12:42:00,66.8,48.0,30.03,SW,219,0.0,-999.0,52,-99.99,,,0.00,weatherlink.com 1.10,2013-04-09 16:42:00,
2013-04-09 12:57:00,67.4,50.0,30.04,SSE,149,0.0,-999.0,53,-99.99,,,0.00,weatherlink.com 1.10,2013-04-09 16:57:00,
2013-04-09 13:12:00,67.6,48.0,30.02,SSW,212,3.0,-999.0,50,-99.99,,,0.00,weatherlink.com 1.10,2013-04-09 17:12:00,
2013-04-09 13:27:00,67.9,50.0,30.03,SW,225,5.0,-999.0,53,-99.99,,,0.00,weatherlink.com 1.10,2013-04-09 17:27:00,
2013-04-09 13:42:00,68.9,48.0,30.03,South,180,0.0,-999.0,47,-99.99,,,0.00,weatherlink.com 1.10,2013-04-09 17:42:00,
2013-04-09 13:57:00,68.9,48.0,30.01,SW,221,3.0,-999.0,47,-99.99,,,0.00,weatherlink.com 1.10,2013-04-09 17:57:00,
2013-04-09 14:12:00,68.8,49.0,30.01,SSW,210,4.0,-999.0,49,-99.99,,,0.00,weatherlink.com 1.10,2013-04-09 18:12:00,
2013-04-09 14:27:00,69.1,49.0,30.01,SW,217,3.0,-999.0,49,-99.99,,,0.00,weatherlink.com 1.10,2013-04-09 18:27:00,
2013-04-09 14:42:00,70.8,49.0,30.00,SSW,200,4.0,-999.0,46,-99.99,,,0.00,weatherlink.com 1.10,2013-04-09 18:42:00,
2013-04-09 14:57:00,70.4,49.0,30.00,SSW,210,0.0,-999.0,47,-99.99,,,0.00,weatherlink.com 1.10,2013-04-09 18:57:00,
2013-04-09 15:13:00,68.4,49.0,29.99,WNW,286,0.0,-999.0,50,-99.99,,,0.00,weatherlink.com 1.10,2013-04-09 19:13:00,
2013-04-09 15:28:00,70.3,49.0,29.99,SW,221,1.0,-999.0,47,-99.99,,,0.00,weatherlink.com 1.10,2013-04-09 19:28:00,
2013-04-09 15:43:00,70.6,47.0,29.98,SW,232,3.0,-999.0,43,-99.99,,,0.00,weatherlink.com 1.10,2013-04-09 19:43:00,
2013-04-09 15:58:00,68.8,48.0,29.98,NW,313,1.0,-999.0,47,-99.99,,,0.00,weatherlink.com 1.10,2013-04-09 19:58:00,
2013-04-09 16:13:00,69.6,48.0,29.98,SSW,202,0.0,-999.0,47,-99.99,,,0.00,weatherlink.com 1.10,2013-04-09 20:13:00,
2013-04-09 16:28:00,69.8,49.0,29.97,SSW,211,6.0,-999.0,48,-99.99,,,0.00,weatherlink.com 1.10,2013-04-09 20:28:00,
2013-04-09 16:43:00,70.1,49.0,29.96,West,262,4.0,-999.0,47,-99.99,,,0.00,weatherlink.com 1.10,2013-04-09 20:43:00,
2013-04-09 16:58:00,69.8,48.0,29.97,WSW,237,7.0,-999.0,46,-99.99,,,0.00,weatherlink.com 1.10,2013-04-09 20:58:00,
2013-04-09 17:13:00,68.3,48.0,29.97,WNW,289,0.0,-999.0,49,-99.99,,,0.00,weatherlink.com 1.10,2013-04-09 21:13:00,
2013-04-09 17:28:00,67.9,49.0,29.97,NW,317,0.0,-999.0,51,-99.99,,,0.00,weatherlink.com 1.10,2013-04-09 21:28:00,
2013-04-09 17:43:00,67.9,49.0,29.98,SSW,212,3.0,-999.0,51,-99.99,,,0.00,weatherlink.com 1.10,2013-04-09 21:43:00,
2013-04-09 17:58:00,68.4,49.0,29.98,SSW,207,3.0,-999.0,50,-99.99,,,0.00,weatherlink.com 1.10,2013-04-09 21:58:00,
2013-04-09 18:13:00,68.3,49.0,29.98,SSW,193,5.0,-999.0,50,-99.99,,,0.00,weatherlink.com 1.10,2013-04-09 22:13:00,
2013-04-09 18:28:00,67.3,49.0,29.98,SW,224,4.0,-999.0,52,-99.99,,,0.00,weatherlink.com 1.10,2013-04-09 22:28:00,
2013-04-09 18:43:00,67.1,49.0,29.97,NE,55,0.0,-999.0,52,-99.99,,,0.00,weatherlink.com 1.10,2013-04-09 22:43:00,
2013-04-09 18:58:00,66.4,49.0,29.97,WNW,289,2.0,-999.0,53,-99.99,,,0.00,weatherlink.com 1.10,2013-04-09 22:58:00,
2013-04-09 19:13:00,66.3,49.0,29.98,NW,325,1.0,-999.0,54,-99.99,,,0.00,weatherlink.com 1.10,2013-04-09 23:13:00,
2013-04-09 19:28:00,65.8,49.0,29.98,SW,219,0.0,-999.0,55,-99.99,,,0.00,weatherlink.com 1.10,2013-04-09 23:28:00,
2013-04-09 19:43:00,65.2,49.0,29.97,SSW,211,0.0,-999.0,56,-99.99,,,0.00,weatherlink.com 1.10,2013-04-09 23:43:00,
2013-04-09 19:58:00,64.3,49.0,29.98,NE,51,0.0,-999.0,58,-99.99,,,0.00,weatherlink.com 1.10,2013-04-09 23:58:00,
2013-04-09 20:13:00,63.4,50.0,29.98,NW,315,3.0,-999.0,61,-99.99,,,0.00,weatherlink.com 1.10,2013-04-10 00:13:00,
2013-04-09 20:28:00,62.7,49.0,29.97,ENE,77,0.0,-999.0,62,-99.99,,,0.00,weatherlink.com 1.10,2013-04-10 00:28:00,
2013-04-09 20:43:00,62.1,49.0,29.97,East,86,3.0,-999.0,63,-99.99,,,0.00,weatherlink.com 1.10,2013-04-10 00:43:00,
2013-04-09 20:58:00,61.2,49.0,29.97,East,94,0.0,-999.0,65,-99.99,,,0.00,weatherlink.com 1.10,2013-04-10 00:58:00,
2013-04-09 21:13:00,60.4,49.0,29.97,East,97,0.0,-999.0,67,-99.99,,,0.00,weatherlink.com 1.10,2013-04-10 01:13:00,
2013-04-09 21:28:00,59.8,49.0,29.97,SW,234,0.0,-999.0,68,-99.99,,,0.00,weatherlink.com 1.10,2013-04-10 01:28:00,
2013-04-09 21:43:00,59.0,49.0,29.97,SW,234,0.0,-999.0,70,-99.99,,,0.00,weatherlink.com 1.10,2013-04-10 01:43:00,
2013-04-09 21:58:00,58.6,49.0,29.98,NW,304,0.0,-999.0,71,-99.99,,,0.00,weatherlink.com 1.10,2013-04-10 01:58:00,
2013-04-09 22:13:00,58.6,49.0,29.99,North,355,0.0,-999.0,70,-99.99,,,0.00,weatherlink.com 1.10,2013-04-10 02:13:00,
2013-04-09 22:28:00,58.9,48.0,29.97,West,260,2.0,-999.0,68,-99.99,,,0.00,weatherlink.com 1.10,2013-04-10 02:28:00,
2013-04-09 22:43:00,57.6,48.0,29.98,WSW,257,4.0,-999.0,71,-99.99,,,0.00,weatherlink.com 1.10,2013-04-10 02:43:00,
2013-04-09 22:58:00,58.1,48.0,29.99,NW,309,1.0,-999.0,70,-99.99,,,0.00,weatherlink.com 1.10,2013-04-10 02:58:00,
2013-04-09 23:13:00,58.1,48.0,29.98,ESE,123,4.0,-999.0,70,-99.99,,,0.00,weatherlink.com 1.10,2013-04-10 03:13:00,
2013-04-09 23:28:00,58.0,48.0,29.96,South,184,2.0,-999.0,69,-99.99,,,0.00,weatherlink.com 1.10,2013-04-10 03:28:00,
2013-04-09 23:43:00,57.3,48.0,29.96,ESE,115,2.0,-999.0,71,-99.99,,,0.00,weatherlink.com 1.10,2013-04-10 03:43:00,
2013-04-09 23:58:00,57.0,48.0,29.95,SE,137,0.0,-999.0,71,-99.99,,,0.00,weatherlink.com 1.10,2013-04-10 03:58:00,